Time;durP1;ratioP1;P1;durP2;ratioP2;P2;SDS_P1;SDS_P2;PMS_P1;PMS_P2;Temp;Humidity;BMP_temperature;BMP_pressure;BME280_temperature;BME280_humidity;BME280_pressure;Samples;Min_cycle;Max_cycle;Signal;HPM_P1;HPM_P2
2022/10/07 00:00:08;;;;;;;3.70;1.30;;;;;;;10.58;76.52;101380.84;5074335;28;20052;-89
2022/10/07 00:02:33;;;;;;;4.88;1.33;;;;;;;10.35;76.95;101375.31;5056336;28;20066;-87
2022/10/07 00:04:58;;;;;;;4.80;1.00;;;;;;;10.34;76.85;101370.19;5073656;28;20040;-86
2022/10/07 00:07:24;;;;;;;5.17;1.03;;;;;;;10.37;76.77;101375.81;5073744;28;20040;-87
2022/10/07 00:09:49;;;;;;;4.90;1.48;;;;;;;10.32;77.19;101373.22;5056166;28;20281;-87
2022/10/07 00:12:15;;;;;;;6.07;1.67;;;;;;;10.28;77.26;101374.94;5073760;28;20040;-87
2022/10/07 00:14:41;;;;;;;5.18;1.90;;;;;;;10.16;77.76;101375.41;5073591;28;20032;-87
2022/10/07 00:17:06;;;;;;;3.90;1.27;;;;;;;10.15;77.83;101379.22;5073994;28;20139;-87
2022/10/07 00:19:35;;;;;;;3.37;1.10;;;;;;;10.10;77.89;101376.59;5073367;28;20516;-86
2022/10/07 00:22:00;;;;;;;3.28;1.02;;;;;;;10.05;78.32;101365.78;5074147;28;20097;-87
2022/10/07 00:24:25;;;;;;;4.50;1.17;;;;;;;10.05;78.28;101365.00;5073642;28;20033;-87
2022/10/07 00:26:51;;;;;;;5.40;1.27;;;;;;;10.09;78.01;101364.09;5073587;28;20036;-86
2022/10/07 00:29:16;;;;;;;4.17;1.00;;;;;;;10.09;78.12;101360.59;5055773;28;20275;-87
2022/10/07 00:31:41;;;;;;;7.72;2.40;;;;;;;10.06;78.03;101353.00;5073658;28;20029;-86
2022/10/07 00:34:07;;;;;;;6.25;1.38;;;;;;;10.06;77.96;101358.44;5055923;28;20031;-88
2022/10/07 00:36:36;;;;;;;2.28;1.02;;;;;;;10.04;77.95;101356.00;5073728;28;20036;-87
2022/10/07 00:39:07;;;;;;;7.15;1.60;;;;;;;10.03;78.15;101357.13;5073531;28;20064;-86
2022/10/07 00:41:36;;;;;;;4.57;1.00;;;;;;;10.15;77.40;101343.84;5072920;28;20029;-86
2022/10/07 00:44:43;;;;;;;4.40;1.10;;;;;;;10.08;77.81;101354.34;5072973;28;20039;-88
2022/10/07 00:47:18;;;;;;;3.80;1.00;;;;;;;10.04;77.83;101342.41;5065057;28;20051;-87
2022/10/07 00:50:01;;;;;;;4.63;1.50;;;;;;;10.06;77.68;101339.38;5073634;28;20033;-87
2022/10/07 00:52:29;;;;;;;7.75;1.30;;;;;;;10.03;77.96;101340.00;5055542;28;20089;-87
2022/10/07 00:54:59;;;;;;;3.60;1.27;;;;;;;9.98;78.09;101337.38;5055682;28;20037;-85
2022/10/07 00:57:28;;;;;;;5.38;1.05;;;;;;;10.10;77.42;101332.25;5073527;28;20032;-86
2022/10/07 00:59:55;;;;;;;3.42;1.13;;;;;;;10.02;77.72;101331.03;5055329;28;20029;-88
2022/10/07 01:02:26;;;;;;;3.55;1.00;;;;;;;10.14;77.46;101330.53;5055203;28;20056;-87
2022/10/07 01:04:53;;;;;;;3.90;1.02;;;;;;;10.26;76.86;101330.88;5055203;28;20074;-88
2022/10/07 01:07:20;;;;;;;5.82;1.00;;;;;;;10.13;77.32;101323.47;5073749;28;20060;-87
2022/10/07 01:09:52;;;;;;;3.83;1.55;;;;;;;10.08;77.58;101318.16;5073543;28;20440;-91
2022/10/07 01:12:42;;;;;;;3.50;1.30;;;;;;;10.06;77.55;101315.69;5054946;28;20111;-87
2022/10/07 01:15:22;;;;;;;5.65;1.52;;;;;;;10.03;77.51;101315.50;5073624;28;20032;-89
2022/10/07 01:18:03;;;;;;;3.05;1.00;;;;;;;10.02;77.59;101308.44;5055028;28;20029;-86
2022/10/07 01:20:53;;;;;;;3.00;1.00;;;;;;;10.03;77.49;101310.88;5072593;28;20029;-86
2022/10/07 01:23:46;;;;;;;2.60;0.98;;;;;;;10.02;77.38;101309.25;5055097;28;20031;-87
2022/10/07 01:26:31;;;;;;;5.93;1.45;;;;;;;9.98;77.46;101307.44;5074221;28;20055;-89
2022/10/07 01:29:06;;;;;;;4.07;1.25;;;;;;;10.00;77.62;101295.16;5054763;28;20024;-86
2022/10/07 01:31:51;;;;;;;6.95;1.60;;;;;;;10.01;77.59;101298.69;5054966;28;20138;-86
2022/10/07 01:34:19;;;;;;;4.53;1.10;;;;;;;9.99;77.30;101287.28;5054917;28;20157;-87
2022/10/07 01:36:49;;;;;;;4.78;1.35;;;;;;;9.97;77.52;101284.06;5054672;28;20397;-88
2022/10/07 01:39:16;;;;;;;5.85;1.40;;;;;;;9.94;77.53;101280.84;5072445;28;20020;-87
2022/10/07 01:41:42;;;;;;;4.97;1.42;;;;;;;9.94;77.56;101280.84;5072975;28;20024;-86
2022/10/07 01:44:11;;;;;;;8.60;1.73;;;;;;;10.04;76.99;101268.94;5054792;28;20029;-87
2022/10/07 01:46:36;;;;;;;4.47;1.23;;;;;;;9.99;77.04;101270.97;5072869;28;20388;-86
2022/10/07 01:49:04;;;;;;;4.57;1.27;;;;;;;10.01;76.91;101263.31;5073093;28;20028;-88
2022/10/07 01:51:34;;;;;;;6.18;1.50;;;;;;;10.01;76.85;101266.03;5072622;28;20107;-87
2022/10/07 01:54:02;;;;;;;7.05;1.63;;;;;;;9.98;77.00;101263.91;5074641;28;20086;-86
2022/10/07 01:56:52;;;;;;;3.38;1.35;;;;;;;9.93;77.32;101262.91;5058546;28;20047;-88
2022/10/07 01:59:41;;;;;;;8.18;1.52;;;;;;;9.95;76.93;101257.97;5076358;28;20033;-86
2022/10/07 02:02:27;;;;;;;6.15;1.50;;;;;;;9.95;76.97;101255.25;5076418;28;20032;-87
2022/10/07 02:05:11;;;;;;;4.03;1.10;;;;;;;9.93;77.08;101252.03;5076916;28;20169;-86
2022/10/07 02:07:50;;;;;;;3.20;1.15;;;;;;;9.91;77.33;101246.09;5076277;28;20025;-86
2022/10/07 02:10:33;;;;;;;5.13;1.13;;;;;;;9.91;77.17;101253.44;5076216;28;20040;-86
2022/10/07 02:13:11;;;;;;;4.05;1.13;;;;;;;9.90;77.30;101246.38;5076789;28;20029;-87
2022/10/07 02:16:01;;;;;;;16.80;1.50;;;;;;;9.91;77.16;101246.09;5076676;28;20037;-86
2022/10/07 02:18:30;;;;;;;6.93;1.27;;;;;;;9.86;77.01;101243.44;5058947;28;20064;-87
2022/10/07 02:20:56;;;;;;;2.72;1.00;;;;;;;9.88;77.18;101243.16;5076617;28;20122;-87
2022/10/07 02:23:24;;;;;;;4.10;1.98;;;;;;;9.85;77.19;101239.13;5058625;28;20431;-86
2022/10/07 02:25:52;;;;;;;4.43;1.20;;;;;;;9.86;77.29;101246.16;5076732;28;20028;-86
2022/10/07 02:28:23;;;;;;;4.15;1.55;;;;;;;9.86;77.27;101229.84;5077500;28;20421;-90
2022/10/07 02:31:09;;;;;;;4.32;1.20;;;;;;;9.85;77.41;101232.88;5076766;28;20382;-86
2022/10/07 02:33:36;;;;;;;5.37;1.20;;;;;;;9.82;77.74;101236.19;5058593;28;20028;-86
2022/10/07 02:36:09;;;;;;;6.75;1.25;;;;;;;9.79;77.79;101229.47;5076989;28;20359;-88
2022/10/07 02:38:37;;;;;;;7.22;1.27;;;;;;;9.74;78.17;101221.41;5076840;28;20066;-87
2022/10/07 02:41:33;;;;;;;6.22;1.30;;;;;;;9.74;78.26;101220.56;5076367;28;20431;-86
2022/10/07 02:44:19;;;;;;;6.28;1.80;;;;;;;9.79;77.97;101213.13;5076308;28;20117;-86
2022/10/07 02:46:51;;;;;;;5.88;1.15;;;;;;;9.86;77.83;101218.16;5058817;28;20029;-89
2022/10/07 02:49:19;;;;;;;5.45;1.70;;;;;;;9.79;78.30;101204.97;5076759;28;20029;-85
2022/10/07 02:51:51;;;;;;;4.20;1.50;;;;;;;9.80;78.14;101209.31;5076450;28;20033;-85
2022/10/07 02:54:23;;;;;;;8.82;1.80;;;;;;;9.82;77.98;101201.66;5077697;28;20113;-86
2022/10/07 02:56:49;;;;;;;4.85;1.70;;;;;;;9.85;78.15;101201.03;5057906;28;20032;-88
2022/10/07 02:59:16;;;;;;;6.10;1.20;;;;;;;9.82;78.30;101195.41;5075828;28;20414;-86
2022/10/07 03:01:45;;;;;;;5.35;1.40;;;;;;;9.82;78.51;101193.50;5075779;28;20036;-86
2022/10/07 03:04:11;;;;;;;4.88;1.48;;;;;;;9.81;78.42;101188.34;5076230;28;20037;-90
2022/10/07 03:06:36;;;;;;;4.28;1.63;;;;;;;9.81;78.42;101191.06;5056898;28;20486;-85
2022/10/07 03:09:03;;;;;;;6.20;1.47;;;;;;;9.78;78.62;101192.50;5075329;28;20044;-86
2022/10/07 03:11:28;;;;;;;5.85;1.50;;;;;;;9.76;78.67;101186.53;5075441;28;20353;-85
2022/10/07 03:13:54;;;;;;;4.68;1.30;;;;;;;9.75;78.94;101189.56;5075105;28;20112;-85
2022/10/07 03:16:19;;;;;;;4.32;1.50;;;;;;;9.71;79.15;101181.19;5075302;28;20115;-86
2022/10/07 03:18:45;;;;;;;4.97;1.67;;;;;;;9.79;78.87;101180.50;5074845;28;20433;-86
2022/10/07 03:21:10;;;;;;;6.63;2.03;;;;;;;9.72;79.20;101173.84;5075064;28;20036;-86
2022/10/07 03:23:37;;;;;;;7.72;2.10;;;;;;;9.66;79.38;101178.59;5075212;28;20039;-86
2022/10/07 03:26:03;;;;;;;4.55;1.20;;;;;;;9.61;79.53;101174.06;5075078;28;20472;-87
2022/10/07 03:28:32;;;;;;;6.65;2.05;;;;;;;9.61;79.63;101168.63;5074617;28;20024;-86
2022/10/07 03:31:07;;;;;;;3.78;1.42;;;;;;;9.61;79.60;101165.91;5074857;28;20037;-86
2022/10/07 03:33:34;;;;;;;8.57;2.00;;;;;;;9.59;79.63;101165.41;5056907;28;20033;-85
2022/10/07 03:35:59;;;;;;;9.30;1.90;;;;;;;9.53;80.02;101166.59;5074776;28;20549;-89
2022/10/07 03:38:25;;;;;;;7.88;2.08;;;;;;;9.49;80.20;101159.34;5056891;28;20033;-89
2022/10/07 03:40:50;;;;;;;3.67;1.60;;;;;;;9.45;80.42;101167.31;5074675;28;20411;-89
2022/10/07 03:43:17;;;;;;;4.00;1.10;;;;;;;9.45;80.37;101167.31;5074512;28;20042;-87
2022/10/07 03:45:49;;;;;;;4.82;1.42;;;;;;;9.43;80.59;101160.56;5056717;28;20288;-85
2022/10/07 03:48:15;;;;;;;3.88;1.42;;;;;;;9.39;80.76;101160.34;5056651;28;20024;-85
2022/10/07 03:50:40;;;;;;;6.77;1.90;;;;;;;9.35;80.90;101170.22;5074366;28;20476;-86
2022/10/07 03:53:06;;;;;;;5.23;2.07;;;;;;;9.31;80.99;101159.13;5074435;28;20279;-85
2022/10/07 03:55:31;;;;;;;14.60;2.28;;;;;;;9.36;80.97;101166.38;5074480;28;20379;-84
2022/10/07 03:57:56;;;;;;;9.23;2.25;;;;;;;9.28;81.15;101165.19;5074140;28;20040;-86
2022/10/07 04:00:24;;;;;;;7.17;1.80;;;;;;;9.25;81.36;101154.91;5074290;28;20099;-89
2022/10/07 04:02:50;;;;;;;8.68;2.03;;;;;;;9.24;81.42;101164.16;5073927;28;20380;-86
2022/10/07 04:05:17;;;;;;;4.15;1.70;;;;;;;9.25;81.31;101160.34;5074271;28;20036;-92
2022/10/07 04:07:44;;;;;;;4.20;2.00;;;;;;;9.19;81.58;101149.84;5074545;28;20037;-87
2022/10/07 04:10:13;;;;;;;7.97;1.90;;;;;;;9.20;81.45;101154.19;5056312;28;20463;-85
2022/10/07 04:12:38;;;;;;;4.97;1.60;;;;;;;9.21;81.56;101153.06;5056168;28;20036;-84
2022/10/07 04:15:04;;;;;;;6.43;2.13;;;;;;;9.17;81.35;101147.44;5074312;28;20039;-85
2022/10/07 04:17:30;;;;;;;5.75;1.83;;;;;;;9.16;81.68;101150.47;5073590;28;20020;-85
2022/10/07 04:19:56;;;;;;;4.80;1.45;;;;;;;9.17;81.53;101147.44;5073784;28;20115;-84
2022/10/07 04:22:22;;;;;;;;;;;;;;;9.13;81.94;101145.63;5074168;28;20498;-86
2022/10/07 04:25:32;;;;;;;4.82;2.00;;;;;;;9.14;81.87;101134.47;5073532;28;19920;-85
2022/10/07 04:27:32;;;;;;;4.40;1.60;;;;;;;9.09;82.20;101139.19;5073352;28;20035;-85
2022/10/07 04:29:58;;;;;;;6.13;1.90;;;;;;;9.05;82.28;101136.25;5073599;28;20103;-87
2022/10/07 04:32:23;;;;;;;7.73;2.83;;;;;;;9.03;82.36;101139.25;5073848;28;20067;-84
2022/10/07 04:34:50;;;;;;;3.90;1.50;;;;;;;9.04;82.61;101135.44;5073422;28;20259;-87
2022/10/07 04:37:15;;;;;;;6.63;1.70;;;;;;;9.16;82.11;101136.88;5073277;28;20533;-85
2022/10/07 04:39:41;;;;;;;4.90;1.73;;;;;;;9.10;82.16;101141.59;5073308;28;20044;-88
2022/10/07 04:42:06;;;;;;;6.17;1.70;;;;;;;9.12;82.14;101133.16;5073267;28;20150;-85
2022/10/07 04:44:31;;;;;;;5.00;1.50;;;;;;;9.06;82.43;101132.41;5073159;28;20314;-85
2022/10/07 04:46:57;;;;;;;7.60;2.10;;;;;;;9.02;82.54;101134.13;5073541;28;20730;-87
2022/10/07 04:49:22;;;;;;;17.10;1.80;;;;;;;9.04;82.85;101131.91;5073200;28;20047;-85
2022/10/07 04:51:48;;;;;;;9.53;2.37;;;;;;;9.14;82.07;101133.66;5055121;28;20274;-85
2022/10/07 04:54:13;;;;;;;7.63;2.13;;;;;;;9.03;82.62;101133.81;5072740;28;20108;-86
2022/10/07 04:56:38;;;;;;;7.40;1.77;;;;;;;9.19;81.97;101131.63;5073449;28;20518;-84
2022/10/07 04:59:04;;;;;;;5.33;1.60;;;;;;;9.09;82.20;101128.31;5073001;28;20376;-85
2022/10/07 05:01:30;;;;;;;;;;;;;;;9.02;82.67;101129.50;5073606;28;20281;-85
2022/10/07 05:03:56;;;;;;;6.88;1.60;;;;;;;9.00;82.79;101122.75;5054806;28;19920;-85
2022/10/07 05:06:22;;;;;;;10.40;1.77;;;;;;;9.03;83.10;101114.00;5054905;28;20067;-85
2022/10/07 05:08:48;;;;;;;8.05;1.50;;;;;;;9.01;82.84;101122.47;5073027;28;20173;-84
2022/10/07 05:11:14;;;;;;;5.28;1.25;;;;;;;8.97;82.54;101110.59;5072978;28;20060;-84
2022/10/07 05:13:39;;;;;;;5.13;1.00;;;;;;;8.98;82.78;101108.69;5072903;28;20063;-85
2022/10/07 05:16:08;;;;;;;7.40;1.90;;;;;;;9.05;82.36;101109.88;5072656;28;20507;-84
2022/10/07 05:18:37;;;;;;;4.60;1.35;;;;;;;9.00;82.62;101109.19;5072617;28;20297;-83
2022/10/07 05:21:07;;;;;;;6.57;1.60;;;;;;;8.97;82.72;101110.59;5072203;28;20415;-84
2022/10/07 05:23:34;;;;;;;8.95;1.98;;;;;;;8.97;82.79;101101.63;5072611;28;20029;-84
2022/10/07 05:26:03;;;;;;;6.55;1.42;;;;;;;8.99;82.76;101102.13;5054516;28;20127;-87
2022/10/07 05:28:29;;;;;;;6.00;1.40;;;;;;;8.96;82.55;101105.47;5071714;28;20452;-85
2022/10/07 05:31:11;;;;;;;5.63;1.95;;;;;;;8.96;82.86;101098.13;5072574;28;20082;-85
2022/10/07 05:33:37;;;;;;;4.72;1.30;;;;;;;8.96;82.78;101103.53;5072656;28;20040;-84
2022/10/07 05:36:04;;;;;;;6.72;1.35;;;;;;;8.93;82.94;101097.91;5072351;28;20356;-84
2022/10/07 05:38:30;;;;;;;4.60;1.45;;;;;;;8.91;83.03;101095.50;5072279;28;20036;-87
2022/10/07 05:41:03;;;;;;;6.18;1.38;;;;;;;8.92;82.86;101101.75;5054309;28;20054;-87
2022/10/07 05:43:30;;;;;;;4.22;1.50;;;;;;;9.02;82.27;101096.09;5072752;28;20040;-84
2022/10/07 05:46:00;;;;;;;4.90;1.60;;;;;;;9.14;81.77;101092.91;5072767;28;20222;-85
2022/10/07 05:48:27;;;;;;;7.78;1.63;;;;;;;9.08;82.07;101088.69;5073780;28;20040;-84
2022/10/07 05:50:53;;;;;;;7.55;1.70;;;;;;;8.97;82.42;101093.47;5072308;28;20028;-84
2022/10/07 05:53:19;;;;;;;6.88;1.38;;;;;;;8.96;82.68;101097.31;5073378;28;20086;-85
2022/10/07 05:55:44;;;;;;;4.50;1.02;;;;;;;8.93;83.04;101092.47;5055488;28;20115;-84
2022/10/07 05:58:12;;;;;;;4.47;1.40;;;;;;;8.94;83.05;101091.38;5076019;28;20029;-86
2022/10/07 06:00:41;;;;;;;6.28;1.40;;;;;;;8.94;82.82;101085.94;5058103;28;20123;-86
2022/10/07 06:03:07;;;;;;;5.15;1.63;;;;;;;8.91;82.97;101084.63;5074366;28;20058;-85
2022/10/07 06:05:32;;;;;;;5.13;1.05;;;;;;;8.91;82.68;101086.53;5073729;28;20025;-86
2022/10/07 06:07:57;;;;;;;4.43;1.08;;;;;;;8.92;82.68;101086.25;5072987;28;20040;-84
2022/10/07 06:13:08;;;;;;;4.55;1.45;;;;;;;9.10;83.04;101086.47;5076661;28;20040;-87
2022/10/07 06:15:33;;;;;;;;;;;;;;;9.13;82.33;101081.22;5072363;28;20509;-85
2022/10/07 06:17:59;;;;;;;7.30;2.47;;;;;;;9.19;81.77;101076.50;5071844;28;19913;-86
2022/10/07 06:20:25;;;;;;;4.75;1.13;;;;;;;9.11;82.69;101080.72;5071562;28;20133;-85
2022/10/07 06:22:54;;;;;;;4.85;1.27;;;;;;;9.30;81.83;101076.00;5072033;28;20044;-84
2022/10/07 06:25:19;;;;;;;5.72;1.42;;;;;;;9.24;81.51;101076.41;5071832;28;20027;-84
2022/10/07 06:27:45;;;;;;;5.53;1.30;;;;;;;9.28;81.47;101075.50;5073906;28;20032;-85
2022/10/07 06:30:11;;;;;;;7.13;1.80;;;;;;;9.34;81.40;101071.56;5071527;28;20036;-85
2022/10/07 06:32:37;;;;;;;3.70;1.15;;;;;;;9.44;80.90;101076.00;5071665;28;20491;-86
2022/10/07 06:35:03;;;;;;;5.30;1.52;;;;;;;9.44;81.26;101072.47;5071873;28;20028;-85
2022/10/07 06:37:30;;;;;;;3.90;1.10;;;;;;;9.33;81.10;101077.28;5071501;28;20039;-83
2022/10/07 06:39:55;;;;;;;5.25;1.35;;;;;;;9.28;81.40;101078.22;5054426;28;20055;-85
2022/10/07 06:42:21;;;;;;;4.22;1.17;;;;;;;9.33;81.52;101080.81;5075197;28;20037;-85
2022/10/07 06:44:46;;;;;;;5.20;1.20;;;;;;;9.41;81.10;101073.06;5075283;28;20115;-85
2022/10/07 06:47:12;;;;;;;4.70;1.10;;;;;;;9.44;80.79;101073.28;5075533;28;20047;-87
2022/10/07 06:49:37;;;;;;;6.20;1.30;;;;;;;9.39;80.99;101067.91;5075676;28;20029;-87
2022/10/07 06:52:03;;;;;;;5.28;1.15;;;;;;;9.48;80.85;101071.53;5076712;28;20259;-89
2022/10/07 06:54:28;;;;;;;3.65;1.27;;;;;;;9.50;80.86;101074.75;5057861;28;20364;-89
2022/10/07 06:56:54;;;;;;;3.97;1.67;;;;;;;9.62;80.78;101076.97;5057786;28;20056;-89
2022/10/07 06:59:19;;;;;;;3.50;1.30;;;;;;;9.71;80.46;101075.13;5058601;28;20032;-87
2022/10/07 07:01:44;;;;;;;5.30;2.13;;;;;;;9.93;79.56;101069.75;5075816;28;20481;-88
2022/10/07 07:04:10;;;;;;;6.80;1.63;;;;;;;9.88;79.65;101075.28;5075337;28;20041;-86
2022/10/07 07:06:36;;;;;;;4.33;0.97;;;;;;;9.89;79.59;101073.38;5074811;28;20341;-85
2022/10/07 07:09:04;;;;;;;4.45;1.20;;;;;;;9.88;79.41;101078.00;5075894;28;20368;-85
2022/10/07 07:11:35;;;;;;;5.97;1.10;;;;;;;10.01;78.93;101081.81;5075447;28;20043;-86
2022/10/07 07:14:05;;;;;;;4.90;1.10;;;;;;;10.04;79.17;101083.09;5075101;28;20460;-85
2022/10/07 07:16:31;;;;;;;3.20;1.27;;;;;;;10.04;78.77;101077.66;5077846;28;20492;-86
2022/10/07 07:19:00;;;;;;;8.65;1.00;;;;;;;10.13;78.35;101082.06;5079729;28;20029;-88
2022/10/07 07:21:29;;;;;;;5.03;1.30;;;;;;;10.10;78.40;101076.44;5076741;28;20388;-85
2022/10/07 07:23:56;;;;;;;2.80;1.02;;;;;;;10.20;78.81;101076.19;5075841;28;20036;-85
2022/10/07 07:26:22;;;;;;;5.82;1.30;;;;;;;10.22;78.03;101074.00;5076351;28;20029;-86
2022/10/07 07:28:58;;;;;;;5.10;1.42;;;;;;;10.30;77.93;101083.34;5058432;28;20031;-85
2022/10/07 07:31:26;;;;;;;3.42;1.20;;;;;;;10.32;77.88;101078.41;5075577;28;20043;-84
2022/10/07 07:33:52;;;;;;;5.47;1.20;;;;;;;10.46;77.65;101077.22;5057108;28;20459;-89
2022/10/07 07:36:21;;;;;;;3.90;1.52;;;;;;;10.50;77.36;101085.56;5056820;28;20072;-85
2022/10/07 07:38:52;;;;;;;5.22;1.50;;;;;;;10.64;76.96;101074.59;5075066;28;20131;-88
2022/10/07 07:41:24;;;;;;;3.95;1.27;;;;;;;10.65;76.74;101071.56;5077342;28;20060;-88
2022/10/07 07:43:50;;;;;;;6.95;1.75;;;;;;;10.70;76.61;101076.06;5058208;28;20028;-87
2022/10/07 07:46:17;;;;;;;3.95;1.38;;;;;;;10.77;76.44;101065.56;5075572;28;20033;-89
2022/10/07 07:48:43;;;;;;;5.38;1.40;;;;;;;10.85;76.14;101070.22;5075764;28;20039;-86
2022/10/07 07:51:09;;;;;;;5.30;1.35;;;;;;;10.91;76.38;101070.88;5076385;28;20455;-86
2022/10/07 07:53:38;;;;;;;3.60;0.98;;;;;;;10.98;75.76;101079.44;5075838;28;20041;-86
2022/10/07 07:56:06;;;;;;;4.13;1.15;;;;;;;11.12;75.46;101078.22;5057805;28;20037;-88
2022/10/07 07:58:32;;;;;;;3.22;1.13;;;;;;;11.13;75.09;101079.81;5060302;28;20050;-87
2022/10/07 08:01:04;;;;;;;3.53;1.10;;;;;;;11.13;76.11;101071.66;5057875;28;20111;-89
2022/10/07 08:03:31;;;;;;;7.95;2.03;;;;;;;11.24;75.17;101069.41;5075809;28;20105;-88
2022/10/07 08:06:01;;;;;;;5.80;1.42;;;;;;;11.39;74.75;101073.63;5074775;28;20025;-87
2022/10/07 08:08:26;;;;;;;7.38;1.50;;;;;;;11.49;74.49;101070.63;5074218;28;20028;-85
2022/10/07 08:10:51;;;;;;;5.28;1.42;;;;;;;11.56;74.18;101067.41;5074455;28;20434;-87
2022/10/07 08:13:17;;;;;;;2.80;1.05;;;;;;;11.61;74.41;101068.09;5057512;28;20032;-87
2022/10/07 08:15:42;;;;;;;5.90;1.98;;;;;;;11.73;73.98;101062.78;5057746;28;20067;-87
2022/10/07 08:18:07;;;;;;;8.27;1.30;;;;;;;11.80;74.74;101067.03;5075142;28;20028;-87
2022/10/07 08:20:35;;;;;;;4.63;1.08;;;;;;;11.88;73.80;101064.28;5074970;28;20266;-87
2022/10/07 08:23:01;;;;;;;2.78;1.10;;;;;;;11.91;73.74;101063.63;5074379;28;20032;-86
2022/10/07 08:25:28;;;;;;;5.95;1.48;;;;;;;12.05;73.35;101058.03;5073871;28;20438;-89
2022/10/07 08:27:54;;;;;;;6.90;1.85;;;;;;;12.08;73.21;101065.56;5074980;28;20052;-86
2022/10/07 08:30:19;;;;;;;4.50;1.00;;;;;;;12.27;72.04;101060.59;5074413;28;20028;-85
2022/10/07 08:32:45;;;;;;;3.90;0.93;;;;;;;12.40;71.88;101058.00;5074122;28;20025;-87
2022/10/07 08:35:10;;;;;;;5.53;1.42;;;;;;;12.53;71.16;101057.00;5074225;28;20032;-87
2022/10/07 08:37:35;;;;;;;3.15;1.10;;;;;;;12.60;70.95;101055.41;5074822;28;20605;-86
2022/10/07 08:40:01;;;;;;;5.57;1.30;;;;;;;12.59;71.02;101059.25;5055748;28;20352;-87
2022/10/07 08:42:32;;;;;;;4.40;1.45;;;;;;;12.74;71.10;101040.72;5074039;28;20025;-86
2022/10/07 08:44:58;;;;;;;4.43;1.42;;;;;;;12.86;70.57;101044.38;5056067;28;20376;-86
2022/10/07 08:47:38;;;;;;;5.03;1.13;;;;;;;12.95;70.13;101041.63;5074544;28;20025;-87
2022/10/07 08:50:17;;;;;;;2.95;0.80;;;;;;;12.95;70.32;101042.44;5073899;28;20031;-86
2022/10/07 08:52:58;;;;;;;5.05;1.00;;;;;;;12.92;70.32;101037.59;5074430;28;20039;-86
2022/10/07 08:55:38;;;;;;;5.07;1.20;;;;;;;13.19;69.81;101030.13;5074417;28;20028;-86
2022/10/07 08:58:06;;;;;;;4.15;1.10;;;;;;;13.26;68.48;101033.13;5074480;28;20028;-85
2022/10/07 09:00:45;;;;;;;6.53;1.30;;;;;;;13.31;68.06;101034.88;5073821;28;20502;-85
2022/10/07 09:03:17;;;;;;;3.72;1.13;;;;;;;13.45;67.97;101027.25;5054435;28;20106;-86
2022/10/07 09:05:47;;;;;;;3.30;0.70;;;;;;;13.43;68.29;101018.53;5074845;28;20527;-86
2022/10/07 09:08:36;;;;;;;4.18;1.15;;;;;;;13.58;67.60;101025.34;5074179;28;20112;-87
2022/10/07 09:11:14;;;;;;;6.03;1.73;;;;;;;13.46;67.74;101026.09;5056300;28;20520;-86
2022/10/07 09:13:45;;;;;;;5.40;1.17;;;;;;;13.52;68.40;101028.31;5055593;28;20527;-86
2022/10/07 09:16:18;;;;;;;6.57;1.98;;;;;;;13.75;68.04;101019.75;5056127;28;20032;-85
2022/10/07 09:18:55;;;;;;;6.55;0.98;;;;;;;13.76;67.31;101022.16;5055582;28;20468;-86
2022/10/07 09:21:28;;;;;;;5.88;1.10;;;;;;;13.81;67.21;101016.50;5073669;28;20112;-86
2022/10/07 09:24:10;;;;;;;5.93;2.33;;;;;;;13.78;67.33;101003.50;5073868;28;20035;-86
2022/10/07 09:26:35;;;;;;;4.40;1.17;;;;;;;13.70;67.03;100998.88;5056257;28;20070;-88
2022/10/07 09:29:01;;;;;;;4.90;1.10;;;;;;;13.73;67.09;100998.19;5055564;28;20044;-86
2022/10/07 09:31:27;;;;;;;3.55;1.15;;;;;;;13.85;67.05;100998.28;5073498;28;20033;-85
2022/10/07 09:33:54;;;;;;;7.72;2.90;;;;;;;13.95;66.36;100997.06;5073650;28;20039;-85
2022/10/07 09:36:19;;;;;;;4.32;1.30;;;;;;;14.03;66.30;100987.97;5074049;28;20432;-86
2022/10/07 09:38:48;;;;;;;1.73;0.63;;;;;;;14.07;66.54;100983.41;5073570;28;20070;-87
2022/10/07 09:41:16;;;;;;;8.38;1.40;;;;;;;14.09;66.31;100994.81;5055332;28;20025;-93
2022/10/07 09:44:05;;;;;;;3.67;1.25;;;;;;;14.19;66.22;100984.59;5074533;28;20024;-85
2022/10/07 09:46:45;;;;;;;4.53;0.88;;;;;;;14.22;65.92;100989.38;5073281;28;20051;-86
2022/10/07 09:49:42;;;;;;;3.20;0.75;;;;;;;14.39;65.29;100968.09;5073090;28;20044;-85
2022/10/07 09:52:16;;;;;;;6.97;1.20;;;;;;;14.40;64.93;100968.88;5061276;28;20101;-85
2022/10/07 09:54:44;;;;;;;2.58;1.08;;;;;;;14.41;65.09;100976.75;5073249;28;20032;-85
2022/10/07 09:57:34;;;;;;;8.10;1.55;;;;;;;14.54;65.17;100983.09;5054938;28;20032;-85
2022/10/07 10:00:11;;;;;;;4.15;1.27;;;;;;;14.61;64.28;100977.88;5049780;28;20041;-85
2022/10/07 10:02:40;;;;;;;5.03;1.13;;;;;;;14.62;64.30;100982.22;5055993;28;20041;-84
2022/10/07 10:05:20;;;;;;;4.20;0.98;;;;;;;14.60;63.82;100980.94;5073608;28;20101;-86
2022/10/07 10:07:51;;;;;;;4.43;1.15;;;;;;;14.54;64.16;100966.66;5074075;28;20066;-87
2022/10/07 10:10:21;;;;;;;5.45;1.02;;;;;;;14.47;64.09;100973.84;5073663;28;20075;-86
2022/10/07 10:12:52;;;;;;;6.90;1.05;;;;;;;14.55;64.32;100973.75;5074098;28;20379;-86
2022/10/07 10:15:29;;;;;;;5.47;1.05;;;;;;;14.67;64.22;100972.97;5076558;28;20036;-85
2022/10/07 10:17:56;;;;;;;6.05;1.25;;;;;;;14.73;63.71;100961.41;5059823;28;20025;-87
2022/10/07 10:20:30;;;;;;;4.47;1.30;;;;;;;14.60;63.91;100965.28;5077888;28;20040;-85
2022/10/07 10:22:58;;;;;;;6.05;1.33;;;;;;;14.66;64.01;100966.69;5077227;28;20032;-86
2022/10/07 10:28:59;;;;;;;5.22;0.93;;;;;;;14.83;62.99;100945.66;5077447;28;20067;-87
2022/10/07 10:32:07;;;;;;;6.88;1.10;;;;;;;14.93;62.84;100947.94;5077045;28;20028;-86
2022/10/07 10:34:51;;;;;;;5.00;0.98;;;;;;;14.93;62.01;100942.44;5059967;28;20033;-87
2022/10/07 10:37:38;;;;;;;5.63;1.35;;;;;;;14.98;62.59;100940.31;5060293;28;20090;-91
2022/10/07 10:40:19;;;;;;;3.75;1.20;;;;;;;14.96;62.54;100926.13;5059559;28;20040;-85
2022/10/07 10:43:15;;;;;;;4.97;1.38;;;;;;;15.03;61.55;100920.06;5076784;28;20028;-86
2022/10/07 10:45:59;;;;;;;6.82;1.55;;;;;;;15.03;62.09;100920.84;5077400;28;20029;-86
2022/10/07 10:48:58;;;;;;;4.00;1.08;;;;;;;15.00;61.66;100923.50;5076892;28;20039;-84
2022/10/07 10:51:51;;;;;;;8.82;2.20;;;;;;;15.12;61.37;100917.19;5076661;28;20044;-87
2022/10/07 10:54:45;;;;;;;7.63;2.83;;;;;;;15.25;61.01;100911.31;5077144;28;20041;-86
2022/10/07 10:57:24;;;;;;;3.53;1.20;;;;;;;15.24;61.25;100906.19;5077171;28;20050;-86
2022/10/07 11:00:04;;;;;;;5.55;1.25;;;;;;;15.71;59.79;100895.41;5079221;28;20096;-85
2022/10/07 11:02:39;;;;;;;6.10;1.60;;;;;;;15.51;59.86;100894.44;5084073;28;20053;-91
2022/10/07 11:05:20;;;;;;;5.25;1.13;;;;;;;15.31;60.31;100893.50;5065461;28;20077;-86
2022/10/07 11:07:54;;;;;;;6.82;1.42;;;;;;;15.29;60.40;100901.28;5060615;28;20039;-84
2022/10/07 11:10:45;;;;;;;2.10;0.80;;;;;;;15.40;60.55;100898.03;5059664;28;20028;-86
2022/10/07 11:13:14;;;;;;;3.13;1.25;;;;;;;15.49;60.13;100880.28;5077000;28;20048;-86
2022/10/07 11:15:46;;;;;;;5.00;1.42;;;;;;;15.58;60.18;100882.84;5076744;28;20028;-86
2022/10/07 11:18:23;;;;;;;3.63;1.00;;;;;;;15.63;59.93;100872.47;5058896;28;20466;-85
2022/10/07 11:20:49;;;;;;;4.65;0.90;;;;;;;15.81;59.86;100870.22;5058644;28;20467;-86
2022/10/07 11:23:40;;;;;;;4.95;1.38;;;;;;;15.94;59.31;100859.94;5059391;28;20029;-87
2022/10/07 11:26:24;;;;;;;7.82;1.23;;;;;;;15.80;59.26;100854.09;5075368;28;20410;-86
2022/10/07 11:28:50;;;;;;;6.53;1.20;;;;;;;15.79;59.74;100847.81;5075760;28;20032;-87
2022/10/07 11:31:24;;;;;;;7.75;1.65;;;;;;;15.90;60.24;100832.38;5076617;28;20060;-86
2022/10/07 11:34:30;;;;;;;7.30;0.93;;;;;;;15.99;59.64;100834.97;5076425;28;20345;-87
2022/10/07 11:37:01;;;;;;;6.15;1.10;;;;;;;16.07;59.10;100833.19;5076848;28;20032;-86
2022/10/07 11:39:28;;;;;;;3.10;1.08;;;;;;;16.16;58.09;100820.88;5076768;28;20029;-87
2022/10/07 11:42:03;;;;;;;4.28;1.50;;;;;;;16.14;59.56;100822.41;5057815;28;20054;-89
2022/10/07 11:44:51;;;;;;;3.70;1.20;;;;;;;16.31;59.40;100816.53;5075889;28;20037;-86
2022/10/07 11:47:22;;;;;;;7.57;1.55;;;;;;;16.38;58.88;100810.41;5056858;28;20499;-86
2022/10/07 11:50:13;;;;;;;6.03;1.40;;;;;;;16.24;59.35;100813.59;5057736;28;20024;-87
2022/10/07 11:52:53;;;;;;;5.95;1.63;;;;;;;16.23;58.90;100803.75;5076112;28;20032;-87